createdAt,value
2023-05-13T00:00:55.775Z,94237.00
2023-05-13T00:01:55.835Z,94237.00
2023-05-13T00:02:55.948Z,94237.00
2023-05-13T00:03:55.992Z,94239.00
2023-05-13T00:04:55.985Z,94239.00
2023-05-13T00:05:56.084Z,94237.00
2023-05-13T00:06:56.108Z,94239.00
2023-05-13T00:07:56.175Z,94235.00
2023-05-13T00:08:56.220Z,94233.00
2023-05-13T00:09:56.284Z,94235.00
2023-05-13T00:10:56.353Z,94235.00
2023-05-13T00:11:56.394Z,94235.00
2023-05-13T00:12:56.453Z,94235.00
2023-05-13T00:13:56.506Z,94237.00
2023-05-13T00:14:56.577Z,94239.00
2023-05-13T00:15:56.634Z,94239.00
2023-05-13T00:16:56.668Z,94243.00
2023-05-13T00:17:56.789Z,94245.00
2023-05-13T00:18:56.822Z,94245.00
2023-05-13T00:19:56.839Z,94243.00
2023-05-13T00:20:56.909Z,94245.00
2023-05-13T00:21:56.959Z,94245.00
2023-05-13T00:22:57.028Z,94245.00
2023-05-13T00:23:57.090Z,94247.00
2023-05-13T00:24:57.138Z,94245.00
2023-05-13T00:25:57.175Z,94243.00
2023-05-13T00:26:57.255Z,94247.00
2023-05-13T00:27:57.288Z,94243.00
2023-05-13T00:28:57.317Z,94243.00
2023-05-13T00:29:57.231Z,94245.00
2023-05-13T00:30:57.229Z,94245.00
2023-05-13T00:31:57.367Z,94249.00
2023-05-13T00:32:57.240Z,94245.00
2023-05-13T00:33:57.218Z,94243.00
2023-05-13T00:34:57.223Z,94245.00
2023-05-13T00:35:57.438Z,94245.00
2023-05-13T00:36:57.195Z,94245.00
2023-05-13T00:37:57.269Z,94245.00
2023-05-13T00:38:57.211Z,94247.00
2023-05-13T00:39:57.237Z,94247.00
2023-05-13T00:40:57.302Z,94247.00
2023-05-13T00:41:57.366Z,94247.00
2023-05-13T00:42:57.407Z,94249.00
2023-05-13T00:43:57.481Z,94251.00
2023-05-13T00:44:57.526Z,94249.00
2023-05-13T00:45:57.655Z,94249.00
2023-05-13T00:46:57.666Z,94251.00
2023-05-13T00:47:57.741Z,94251.00
2023-05-13T00:48:57.783Z,94251.00
2023-05-13T00:49:57.839Z,94251.00
2023-05-13T00:50:57.901Z,94251.00
2023-05-13T00:51:57.953Z,94253.00
2023-05-13T00:52:58.089Z,94253.00
2023-05-13T00:53:58.059Z,94255.00
2023-05-13T00:54:58.125Z,94253.00
2023-05-13T00:55:58.269Z,94255.00
2023-05-13T00:56:58.328Z,94253.00
2023-05-13T00:57:58.604Z,94253.00
2023-05-13T00:58:58.355Z,94255.00
2023-05-13T00:59:58.420Z,94253.00
2023-05-13T01:00:58.522Z,94253.00
2023-05-13T01:01:58.583Z,94255.00
2023-05-13T01:02:58.788Z,94257.00
2023-05-13T01:03:58.673Z,94255.00
2023-05-13T01:04:58.713Z,94255.00
2023-05-13T01:05:58.756Z,94253.00
2023-05-13T01:06:58.901Z,94257.00
2023-05-13T01:07:59.151Z,94257.00
2023-05-13T01:08:58.922Z,94257.00
2023-05-13T01:09:58.992Z,94255.00
2023-05-13T01:10:59.063Z,94259.00
2023-05-13T01:11:59.102Z,94261.00
2023-05-13T01:12:59.206Z,94262.00
2023-05-13T01:13:59.289Z,94259.00
2023-05-13T01:14:59.307Z,94261.00
2023-05-13T01:15:59.363Z,94259.00
2023-05-13T01:16:59.533Z,94259.00
2023-05-13T01:17:59.509Z,94259.00
2023-05-13T01:18:59.570Z,94259.00
2023-05-13T01:19:59.606Z,94261.00
2023-05-13T01:20:59.633Z,94257.00
2023-05-13T01:21:59.714Z,94261.00
2023-05-13T01:22:59.771Z,94261.00
2023-05-13T01:23:59.826Z,94262.00
2023-05-13T01:25:00.579Z,94261.00
2023-05-13T01:25:59.899Z,94261.00
2023-05-13T01:26:59.963Z,94259.00
2023-05-13T01:28:00.064Z,94261.00
2023-05-13T01:29:00.130Z,94259.00
2023-05-13T01:30:01.123Z,94261.00
2023-05-13T01:31:00.275Z,94259.00
2023-05-13T01:32:00.288Z,94259.00
2023-05-13T01:33:01.109Z,94261.00
2023-05-13T01:34:00.384Z,94261.00
2023-05-13T01:35:00.460Z,94262.00
2023-05-13T01:36:00.503Z,94262.00
2023-05-13T01:37:00.593Z,94262.00
2023-05-13T01:38:00.649Z,94262.00
2023-05-13T01:39:00.709Z,94266.00
2023-05-13T01:40:00.847Z,94266.00
2023-05-13T01:41:00.816Z,94266.00
2023-05-13T01:42:00.945Z,94266.00
2023-05-13T01:43:00.976Z,94266.00
2023-05-13T01:44:00.953Z,94268.00
2023-05-13T01:45:00.955Z,94268.00
2023-05-13T01:46:00.977Z,94270.00
2023-05-13T01:47:00.925Z,94268.00
2023-05-13T01:48:00.953Z,94268.00
2023-05-13T01:49:00.913Z,94268.00
2023-05-13T01:50:00.933Z,94268.00
2023-05-13T01:51:00.896Z,94268.00
2023-05-13T01:52:00.896Z,94268.00
2023-05-13T01:53:00.915Z,94266.00
2023-05-13T01:54:00.872Z,94264.00
2023-05-13T01:55:00.916Z,94264.00
2023-05-13T01:56:00.975Z,94264.00
2023-05-13T01:57:01.034Z,94262.00
2023-05-13T01:58:01.141Z,94262.00
2023-05-13T01:59:01.162Z,94264.00
2023-05-13T02:00:01.244Z,94262.00
2023-05-13T02:01:02.079Z,94259.00
2023-05-13T02:02:01.454Z,94261.00
2023-05-13T02:03:01.580Z,94261.00
2023-05-13T02:04:01.548Z,94259.00
2023-05-13T02:05:01.520Z,94259.00
2023-05-13T02:06:01.639Z,94259.00
2023-05-13T02:07:01.667Z,94257.00
2023-05-13T02:08:01.726Z,94257.00
2023-05-13T02:09:01.815Z,94259.00
2023-05-13T02:10:01.849Z,94259.00
2023-05-13T02:11:01.913Z,94259.00
2023-05-13T02:12:02.146Z,94259.00
2023-05-13T02:13:02.043Z,94261.00
2023-05-13T02:14:02.101Z,94259.00
2023-05-13T02:15:02.178Z,94259.00
2023-05-13T02:16:02.240Z,94261.00
2023-05-13T02:17:02.305Z,94257.00
2023-05-13T02:18:02.430Z,94261.00
2023-05-13T02:19:02.464Z,94261.00
2023-05-13T02:20:02.516Z,94261.00
2023-05-13T02:21:02.532Z,94257.00
2023-05-13T02:22:02.581Z,94259.00
2023-05-13T02:23:02.647Z,94259.00
2023-05-13T02:24:02.753Z,94261.00
2023-05-13T02:25:02.770Z,94261.00
2023-05-13T02:26:02.835Z,94259.00
2023-05-13T02:27:02.901Z,94262.00
2023-05-13T02:28:02.968Z,94259.00
2023-05-13T02:29:03.073Z,94257.00
2023-05-13T02:30:03.097Z,94259.00
2023-05-13T02:31:03.147Z,94259.00
2023-05-13T02:32:03.273Z,94259.00
2023-05-13T02:33:04.149Z,94257.00
2023-05-13T02:34:03.346Z,94257.00
2023-05-13T02:35:03.420Z,94257.00
2023-05-13T02:36:03.469Z,94257.00
2023-05-13T02:37:03.531Z,94257.00
2023-05-13T02:38:03.608Z,94259.00
2023-05-13T02:39:03.654Z,94259.00
2023-05-13T02:40:03.721Z,94259.00
2023-05-13T02:41:03.786Z,94259.00
2023-05-13T02:42:03.853Z,94261.00
2023-05-13T02:43:03.912Z,94262.00
2023-05-13T02:44:03.984Z,94257.00
2023-05-13T02:45:04.068Z,94262.00
2023-05-13T02:46:04.122Z,94257.00
2023-05-13T02:47:04.162Z,94261.00
2023-05-13T02:48:04.193Z,94257.00
2023-05-13T02:49:04.138Z,94259.00
2023-05-13T02:50:04.194Z,94257.00
2023-05-13T02:51:05.170Z,94262.00
2023-05-13T02:52:04.131Z,94259.00
2023-05-13T02:53:04.117Z,94262.00
2023-05-13T02:54:04.100Z,94257.00
2023-05-13T02:55:04.193Z,94259.00
2023-05-13T02:56:04.124Z,94261.00
2023-05-13T02:57:04.178Z,94262.00
2023-05-13T02:58:04.195Z,94264.00
2023-05-13T02:59:04.155Z,94262.00
2023-05-13T03:00:04.152Z,94262.00
2023-05-13T03:01:04.191Z,94262.00
2023-05-13T03:02:04.146Z,94262.00
2023-05-13T03:03:04.222Z,94259.00
2023-05-13T03:04:04.134Z,94262.00
2023-05-13T03:05:04.117Z,94262.00
2023-05-13T03:06:04.128Z,94262.00
2023-05-13T03:07:04.106Z,94262.00
2023-05-13T03:08:04.109Z,94264.00
2023-05-13T03:09:04.100Z,94264.00
2023-05-13T03:10:04.152Z,94264.00
2023-05-13T03:11:04.231Z,94262.00
2023-05-13T03:12:04.298Z,94262.00
2023-05-13T03:13:05.129Z,94262.00
2023-05-13T03:14:04.296Z,94262.00
2023-05-13T03:15:04.348Z,94262.00
2023-05-13T03:16:04.302Z,94262.00
2023-05-13T03:17:04.256Z,94264.00
2023-05-13T03:18:04.268Z,94264.00
2023-05-13T03:19:04.310Z,94266.00
2023-05-13T03:20:04.238Z,94268.00
2023-05-13T03:21:04.203Z,94266.00
2023-05-13T03:22:04.222Z,94268.00
2023-05-13T03:23:04.270Z,94270.00
2023-05-13T03:24:04.331Z,94270.00
2023-05-13T03:25:04.369Z,94272.00
2023-05-13T03:26:04.427Z,94272.00
2023-05-13T03:27:04.523Z,94272.00
2023-05-13T03:28:04.623Z,94272.00
2023-05-13T03:29:04.620Z,94274.00
2023-05-13T03:30:04.759Z,94274.00
2023-05-13T03:31:04.741Z,94274.00
2023-05-13T03:32:04.795Z,94272.00
2023-05-13T03:33:04.923Z,94278.00
2023-05-13T03:34:04.939Z,94276.00
2023-05-13T03:35:04.985Z,94276.00
2023-05-13T03:36:05.058Z,94276.00
2023-05-13T03:37:05.144Z,94278.00
2023-05-13T03:38:05.181Z,94280.00
2023-05-13T03:39:05.260Z,94282.00
2023-05-13T03:40:05.281Z,94278.00
2023-05-13T03:41:05.355Z,94278.00
2023-05-13T03:42:05.414Z,94278.00
2023-05-13T03:43:05.471Z,94278.00
2023-05-13T03:44:05.552Z,94280.00
2023-05-13T03:45:05.630Z,94282.00
2023-05-13T03:46:05.680Z,94286.00
2023-05-13T03:47:05.888Z,94282.00
2023-05-13T03:48:05.861Z,94282.00
2023-05-13T03:49:05.856Z,94284.00
2023-05-13T03:50:05.920Z,94284.00
2023-05-13T03:51:05.995Z,94288.00
2023-05-13T03:52:06.051Z,94286.00
2023-05-13T03:53:06.122Z,94288.00
2023-05-13T03:54:06.193Z,94288.00
2023-05-13T03:55:06.233Z,94286.00
2023-05-13T03:56:06.329Z,94290.00
2023-05-13T03:57:06.373Z,94290.00
2023-05-13T03:58:06.424Z,94292.00
2023-05-13T03:59:06.540Z,94290.00
2023-05-13T04:00:06.530Z,94290.00
2023-05-13T04:01:06.610Z,94288.00
2023-05-13T04:02:06.739Z,94288.00
2023-05-13T04:03:06.809Z,94288.00
2023-05-13T04:04:06.802Z,94288.00
2023-05-13T04:05:06.841Z,94290.00
2023-05-13T04:06:06.846Z,94290.00
2023-05-13T04:07:06.816Z,94290.00
2023-05-13T04:08:06.832Z,94290.00
2023-05-13T04:09:06.789Z,94290.00
2023-05-13T04:10:06.805Z,94294.00
2023-05-13T04:11:06.775Z,94294.00
2023-05-13T04:12:06.789Z,94294.00
2023-05-13T04:13:06.772Z,94294.00
2023-05-13T04:14:06.856Z,94296.00
2023-05-13T04:15:06.817Z,94296.00
2023-05-13T04:16:06.757Z,94298.00
2023-05-13T04:17:07.003Z,94296.00
2023-05-13T04:18:06.872Z,94296.00
2023-05-13T04:19:06.936Z,94298.00
2023-05-13T04:20:06.876Z,94298.00
2023-05-13T04:21:06.915Z,94298.00
2023-05-13T04:22:06.982Z,94298.00
2023-05-13T04:23:07.001Z,94300.00
2023-05-13T04:24:07.023Z,94300.00
2023-05-13T04:25:07.037Z,94300.00
2023-05-13T04:26:07.061Z,94302.00
2023-05-13T04:27:07.095Z,94304.00
2023-05-13T04:28:07.171Z,94306.00
2023-05-13T04:29:07.127Z,94306.00
2023-05-13T04:30:07.213Z,94306.00
2023-05-13T04:31:07.224Z,94306.00
2023-05-13T04:32:07.341Z,94308.00
2023-05-13T04:33:07.376Z,94309.00
2023-05-13T04:34:07.364Z,94311.00
2023-05-13T04:35:19.445Z,94311.00
2023-05-13T04:36:37.622Z,94311.00
2023-05-13T04:37:37.624Z,94313.00
2023-05-13T04:38:38.431Z,94315.00
2023-05-13T04:39:40.420Z,94317.00
2023-05-13T04:40:39.425Z,94313.00
2023-05-13T04:43:18.816Z,94315.00
2023-05-13T04:44:13.400Z,94317.00
2023-05-13T04:46:39.357Z,94317.00
2023-05-13T04:47:38.043Z,94319.00
2023-05-13T04:48:36.750Z,94319.00
2023-05-13T04:49:33.378Z,94317.00
2023-05-13T04:50:38.411Z,94319.00
2023-05-13T04:51:34.830Z,94321.00
2023-05-13T04:52:34.013Z,94323.00
2023-05-13T04:53:34.518Z,94323.00
2023-05-13T04:54:38.441Z,94321.00
2023-05-13T04:55:37.113Z,94323.00
2023-05-13T04:56:36.836Z,94325.00
2023-05-13T04:57:33.922Z,94325.00
2023-05-13T04:58:33.517Z,94327.00
2023-05-13T04:59:35.860Z,94327.00
2023-05-13T05:00:35.759Z,94325.00
2023-05-13T05:01:35.869Z,94325.00
2023-05-13T05:02:36.798Z,94325.00
2023-05-13T05:03:35.167Z,94325.00
2023-05-13T05:04:33.138Z,94327.00
2023-05-13T05:05:33.490Z,94329.00
2023-05-13T05:06:35.658Z,94329.00
2023-05-13T05:07:54.077Z,94329.00
2023-05-13T05:08:52.617Z,94329.00
2023-05-13T05:09:53.714Z,94335.00
2023-05-13T05:10:53.912Z,94335.00
2023-05-13T05:11:52.967Z,94327.00
2023-05-13T05:12:56.656Z,94335.00
2023-05-13T05:13:52.264Z,94329.00
2023-05-13T05:14:57.428Z,94327.00
2023-05-13T05:15:53.136Z,94327.00
2023-05-13T05:16:52.605Z,94333.00
2023-05-13T05:17:43.097Z,94333.00
2023-05-13T05:18:43.125Z,94333.00
2023-05-13T05:19:42.999Z,94333.00
2023-05-13T05:20:42.995Z,94331.00
2023-05-13T05:21:43.011Z,94331.00
2023-05-13T05:22:42.985Z,94335.00
2023-05-13T05:23:43.014Z,94335.00
2023-05-13T05:24:43.001Z,94335.00
2023-05-13T05:25:42.976Z,94337.00
2023-05-13T05:26:43.015Z,94339.00
2023-05-13T05:27:42.944Z,94339.00
2023-05-13T05:28:42.951Z,94343.00
2023-05-13T05:29:42.934Z,94343.00
2023-05-13T05:30:42.939Z,94341.00
2023-05-13T05:31:43.001Z,94341.00
2023-05-13T05:32:43.022Z,94343.00
2023-05-13T05:33:42.923Z,94339.00
2023-05-13T05:34:42.930Z,94341.00
2023-05-13T05:35:43.056Z,94343.00
2023-05-13T05:36:42.876Z,94343.00
2023-05-13T05:37:42.881Z,94343.00
2023-05-13T05:38:42.879Z,94345.00
2023-05-13T05:39:42.857Z,94345.00
2023-05-13T05:40:42.850Z,94345.00
2023-05-13T05:41:42.901Z,94347.00
2023-05-13T05:42:42.820Z,94345.00
2023-05-13T05:43:42.854Z,94347.00
2023-05-13T05:44:42.849Z,94345.00
2023-05-13T05:45:42.925Z,94345.00
2023-05-13T05:46:42.839Z,94349.00
2023-05-13T05:47:42.832Z,94347.00
2023-05-13T05:48:42.802Z,94345.00
2023-05-13T05:49:42.803Z,94349.00
2023-05-13T05:50:42.794Z,94349.00
2023-05-13T05:51:42.763Z,94349.00
2023-05-13T05:52:42.764Z,94347.00
2023-05-13T05:53:42.772Z,94349.00
2023-05-13T05:54:42.751Z,94349.00
2023-05-13T05:55:42.782Z,94353.00
2023-05-13T05:56:42.743Z,94353.00
2023-05-13T05:57:42.748Z,94351.00
2023-05-13T05:58:42.741Z,94351.00
2023-05-13T05:59:42.710Z,94351.00
2023-05-13T06:00:42.708Z,94351.00
2023-05-13T06:01:42.771Z,94353.00
2023-05-13T06:02:42.835Z,94355.00
2023-05-13T06:03:42.755Z,94353.00
2023-05-13T06:04:42.799Z,94357.00
2023-05-13T06:05:42.664Z,94357.00
2023-05-13T06:06:42.741Z,94359.00
2023-05-13T06:07:42.677Z,94359.00
2023-05-13T06:08:42.731Z,94357.00
2023-05-13T06:09:42.636Z,94361.00
2023-05-13T06:10:42.683Z,94359.00
2023-05-13T06:11:42.641Z,94357.00
2023-05-13T06:12:42.638Z,94359.00
2023-05-13T06:13:42.607Z,94359.00
2023-05-13T06:14:42.631Z,94357.00
2023-05-13T06:15:42.713Z,94357.00
2023-05-13T06:16:42.690Z,94359.00
2023-05-13T06:17:42.869Z,94357.00
2023-05-13T06:18:42.784Z,94359.00
2023-05-13T06:19:42.789Z,94359.00
2023-05-13T06:20:42.839Z,94359.00
2023-05-13T06:21:42.932Z,94357.00
2023-05-13T06:22:42.942Z,94361.00
2023-05-13T06:23:42.954Z,94357.00
2023-05-13T06:24:43.042Z,94361.00
2023-05-13T06:25:43.030Z,94361.00
2023-05-13T06:26:43.065Z,94359.00
2023-05-13T06:27:43.099Z,94359.00
2023-05-13T06:28:43.131Z,94361.00
2023-05-13T06:29:43.160Z,94361.00
2023-05-13T06:30:43.235Z,94361.00
2023-05-13T06:31:43.365Z,94363.00
2023-05-13T06:32:50.351Z,94361.00
2023-05-13T06:33:44.285Z,94361.00
2023-05-13T06:34:43.268Z,94359.00
2023-05-13T06:35:43.292Z,94361.00
2023-05-13T06:36:43.273Z,94361.00
2023-05-13T06:37:43.281Z,94363.00
2023-05-13T06:38:43.245Z,94359.00
2023-05-13T06:39:43.238Z,94361.00
2023-05-13T06:40:43.205Z,94363.00
2023-05-13T06:41:43.207Z,94363.00
2023-05-13T06:42:43.193Z,94364.00
2023-05-13T06:43:43.209Z,94363.00
2023-05-13T06:44:43.202Z,94363.00
2023-05-13T06:45:43.314Z,94364.00
2023-05-13T06:46:43.317Z,94364.00
2023-05-13T06:47:43.304Z,94363.00
2023-05-13T06:48:43.327Z,94363.00
2023-05-13T06:49:43.439Z,94366.00
2023-05-13T06:50:43.379Z,94366.00
2023-05-13T06:51:43.403Z,94366.00
2023-05-13T06:52:43.425Z,94364.00
2023-05-13T06:53:43.447Z,94364.00
2023-05-13T06:54:43.471Z,94364.00
2023-05-13T06:55:43.469Z,94366.00
2023-05-13T06:56:43.525Z,94366.00
2023-05-13T06:57:43.810Z,94366.00
2023-05-13T06:58:43.568Z,94368.00
2023-05-13T06:59:43.621Z,94368.00
2023-05-13T07:00:43.709Z,94368.00
2023-05-13T07:01:43.751Z,94368.00
2023-05-13T07:02:43.810Z,94370.00
2023-05-13T07:03:43.913Z,94378.00
2023-05-13T07:04:43.892Z,94370.00
2023-05-13T07:05:43.939Z,94368.00
2023-05-13T07:06:44.032Z,94370.00
2023-05-13T07:07:44.054Z,94368.00
2023-05-13T07:08:44.084Z,94378.00
2023-05-13T07:09:44.112Z,94378.00
2023-05-13T07:10:44.166Z,94378.00
2023-05-13T07:11:44.244Z,94378.00
2023-05-13T07:12:44.294Z,94382.00
2023-05-13T07:13:44.355Z,94378.00
2023-05-13T07:14:44.417Z,94378.00
2023-05-13T07:15:44.448Z,94380.00
2023-05-13T07:16:45.272Z,94378.00
2023-05-13T07:17:44.688Z,94378.00
2023-05-13T07:18:44.670Z,94380.00
2023-05-13T07:19:44.711Z,94380.00
2023-05-13T07:20:44.728Z,94380.00
2023-05-13T07:21:44.831Z,94378.00
2023-05-13T07:22:44.869Z,94380.00
2023-05-13T07:23:44.958Z,94380.00
2023-05-13T07:24:45.031Z,94380.00
2023-05-13T07:25:45.053Z,94380.00
2023-05-13T07:26:45.081Z,94384.00
2023-05-13T07:27:45.095Z,94382.00
2023-05-13T07:28:45.148Z,94382.00
2023-05-13T07:29:45.137Z,94384.00
2023-05-13T07:30:45.863Z,94384.00
2023-05-13T07:31:45.422Z,94384.00
2023-05-13T07:32:45.481Z,94384.00
2023-05-13T07:33:45.468Z,94386.00
2023-05-13T07:34:45.520Z,94384.00
2023-05-13T07:35:45.574Z,94384.00
2023-05-13T07:36:45.650Z,94386.00
2023-05-13T07:37:45.674Z,94384.00
2023-05-13T07:38:46.283Z,94382.00
2023-05-13T07:39:45.826Z,94382.00
2023-05-13T07:40:45.825Z,94380.00
2023-05-13T07:41:45.900Z,94382.00
2023-05-13T07:42:45.949Z,94382.00
2023-05-13T07:43:46.037Z,94380.00
2023-05-13T07:44:46.125Z,94382.00
2023-05-13T07:45:46.112Z,94382.00
2023-05-13T07:46:46.183Z,94380.00
2023-05-13T07:47:46.239Z,94384.00
2023-05-13T07:48:46.253Z,94384.00
2023-05-13T07:49:46.231Z,94380.00
2023-05-13T07:50:46.274Z,94380.00
2023-05-13T07:51:46.299Z,94380.00
2023-05-13T07:52:46.326Z,94382.00
2023-05-13T07:53:46.340Z,94382.00
2023-05-13T07:54:46.342Z,94382.00
2023-05-13T07:55:46.362Z,94378.00
2023-05-13T07:56:46.378Z,94382.00
2023-05-13T07:57:46.360Z,94380.00
2023-05-13T07:58:46.340Z,94378.00
2023-05-13T07:59:46.345Z,94380.00
2023-05-13T08:00:46.386Z,94380.00
2023-05-13T08:01:46.373Z,94378.00
2023-05-13T08:02:46.422Z,94368.00
2023-05-13T08:03:46.548Z,94370.00
2023-05-13T08:04:46.490Z,94370.00
2023-05-13T08:05:46.427Z,94370.00
2023-05-13T08:06:46.426Z,94378.00
2023-05-13T08:07:46.455Z,94378.00
2023-05-13T08:08:46.507Z,94378.00
2023-05-13T08:09:46.525Z,94380.00
2023-05-13T08:10:46.503Z,94380.00
2023-05-13T08:11:46.519Z,94380.00
2023-05-13T08:12:46.558Z,94378.00
2023-05-13T08:13:46.574Z,94378.00
2023-05-13T08:14:48.835Z,94378.00
2023-05-13T08:15:46.695Z,94370.00
2023-05-13T08:16:58.789Z,94370.00
2023-05-13T08:17:46.785Z,94368.00
2023-05-13T08:18:46.765Z,94370.00
2023-05-13T08:19:46.782Z,94368.00
2023-05-13T08:20:46.692Z,94364.00
2023-05-13T08:21:46.715Z,94366.00
2023-05-13T08:22:46.680Z,94366.00
2023-05-13T08:23:48.443Z,94366.00
2023-05-13T08:24:46.666Z,94364.00
2023-05-13T08:25:46.675Z,94366.00
2023-05-13T08:26:46.637Z,94364.00
2023-05-13T08:27:46.636Z,94364.00
2023-05-13T08:28:46.642Z,94364.00
2023-05-13T08:29:46.815Z,94363.00
2023-05-13T08:30:46.621Z,94363.00
2023-05-13T08:31:46.714Z,94363.00
2023-05-13T08:32:46.660Z,94364.00
2023-05-13T08:33:46.593Z,94361.00
2023-05-13T08:34:46.635Z,94361.00
2023-05-13T08:35:46.600Z,94359.00
2023-05-13T08:36:46.575Z,94359.00
2023-05-13T08:37:46.586Z,94363.00
2023-05-13T08:38:46.616Z,94361.00
2023-05-13T08:39:46.609Z,94361.00
2023-05-13T08:40:46.545Z,94359.00
2023-05-13T08:41:46.526Z,94359.00
2023-05-13T08:42:46.532Z,94357.00
2023-05-13T08:43:46.611Z,94359.00
2023-05-13T08:44:46.610Z,94359.00
2023-05-13T08:45:46.677Z,94359.00
2023-05-13T08:46:46.692Z,94357.00
2023-05-13T08:47:46.839Z,94355.00
2023-05-13T08:48:46.817Z,94355.00
2023-05-13T08:49:46.886Z,94355.00
2023-05-13T08:50:46.938Z,94355.00
2023-05-13T08:51:46.962Z,94355.00
2023-05-13T08:52:46.982Z,94353.00
2023-05-13T08:53:47.001Z,94353.00
2023-05-13T08:54:47.091Z,94353.00
2023-05-13T08:55:47.067Z,94353.00
2023-05-13T08:56:47.110Z,94351.00
2023-05-13T08:57:47.205Z,94351.00
2023-05-13T08:58:47.239Z,94349.00
2023-05-13T08:59:47.296Z,94351.00
2023-05-13T09:00:50.344Z,94347.00
2023-05-13T09:01:47.433Z,94347.00
2023-05-13T09:02:47.397Z,94345.00
2023-05-13T09:03:47.344Z,94345.00
2023-05-13T09:04:47.366Z,94343.00
2023-05-13T09:05:47.338Z,94343.00
2023-05-13T09:06:47.308Z,94345.00
2023-05-13T09:07:47.328Z,94347.00
2023-05-13T09:08:47.299Z,94347.00
2023-05-13T09:09:47.318Z,94347.00
2023-05-13T09:10:47.282Z,94347.00
2023-05-13T09:11:47.297Z,94345.00
2023-05-13T09:12:47.281Z,94347.00
2023-05-13T09:13:47.268Z,94345.00
2023-05-13T09:14:47.283Z,94347.00
2023-05-13T09:15:47.273Z,94347.00
2023-05-13T09:16:47.241Z,94345.00
2023-05-13T09:17:47.334Z,94343.00
2023-05-13T09:18:47.254Z,94341.00
2023-05-13T09:19:47.325Z,94341.00
2023-05-13T09:20:47.253Z,94339.00
2023-05-13T09:21:47.214Z,94339.00
2023-05-13T09:22:47.230Z,94337.00
2023-05-13T09:23:47.203Z,94335.00
2023-05-13T09:24:47.207Z,94337.00
2023-05-13T09:25:47.192Z,94335.00
2023-05-13T09:26:47.175Z,94335.00
2023-05-13T09:27:47.169Z,94337.00
2023-05-13T09:28:47.154Z,94335.00
2023-05-13T09:29:47.166Z,94333.00
2023-05-13T09:30:47.153Z,94333.00
2023-05-13T09:31:47.170Z,94331.00
2023-05-13T09:32:47.143Z,94329.00
2023-05-13T09:33:47.133Z,94329.00
2023-05-13T09:34:47.146Z,94327.00
2023-05-13T09:35:47.120Z,94327.00
2023-05-13T09:36:47.961Z,94327.00
2023-05-13T09:37:47.197Z,94327.00
2023-05-13T09:38:47.243Z,94327.00
2023-05-13T09:39:47.315Z,94323.00
2023-05-13T09:40:47.381Z,94325.00
2023-05-13T09:41:47.441Z,94325.00
2023-05-13T09:42:47.513Z,94327.00
2023-05-13T09:43:47.553Z,94321.00
2023-05-13T09:44:47.652Z,94321.00
2023-05-13T09:45:47.682Z,94321.00
2023-05-13T09:46:47.815Z,94321.00
2023-05-13T09:47:47.845Z,94321.00
2023-05-13T09:48:47.873Z,94323.00
2023-05-13T09:49:47.950Z,94321.00
2023-05-13T09:50:48.000Z,94323.00
2023-05-13T09:51:48.049Z,94323.00
2023-05-13T09:52:49.090Z,94325.00
2023-05-13T09:53:48.124Z,94323.00
2023-05-13T09:54:48.206Z,94323.00
2023-05-13T09:55:48.225Z,94323.00
2023-05-13T09:56:48.324Z,94321.00
2023-05-13T09:57:48.339Z,94321.00
2023-05-13T09:58:48.395Z,94321.00
2023-05-13T09:59:48.463Z,94321.00
2023-05-13T10:00:48.661Z,94319.00
2023-05-13T10:01:48.742Z,94319.00
2023-05-13T10:02:48.673Z,94319.00
2023-05-13T10:03:48.766Z,94319.00
2023-05-13T10:04:48.798Z,94319.00
2023-05-13T10:05:48.779Z,94317.00
2023-05-13T10:06:48.852Z,94321.00
2023-05-13T10:07:48.910Z,94323.00
2023-05-13T10:08:49.007Z,94321.00
2023-05-13T10:09:49.050Z,94321.00
2023-05-13T10:10:49.121Z,94321.00
2023-05-13T10:11:49.859Z,94319.00
2023-05-13T10:12:49.267Z,94321.00
2023-05-13T10:13:49.235Z,94321.00
2023-05-13T10:14:49.333Z,94319.00
2023-05-13T10:15:49.332Z,94319.00
2023-05-13T10:16:49.409Z,94317.00
2023-05-13T10:17:51.418Z,94315.00
2023-05-13T10:18:49.522Z,94315.00
2023-05-13T10:19:49.556Z,94315.00
2023-05-13T10:20:49.607Z,94313.00
2023-05-13T10:21:49.668Z,94313.00
2023-05-13T10:22:49.683Z,94313.00
2023-05-13T10:23:49.732Z,94311.00
2023-05-13T10:24:49.852Z,94315.00
2023-05-13T10:25:49.842Z,94313.00
2023-05-13T10:26:49.925Z,94311.00
2023-05-13T10:27:49.956Z,94311.00
2023-05-13T10:28:50.039Z,94309.00
2023-05-13T10:29:50.078Z,94309.00
2023-05-13T10:30:50.160Z,94309.00
2023-05-13T10:31:50.223Z,94309.00
2023-05-13T10:32:50.335Z,94306.00
2023-05-13T10:33:50.341Z,94306.00
2023-05-13T10:34:50.380Z,94304.00
2023-05-13T10:35:50.453Z,94302.00
2023-05-13T10:36:50.506Z,94300.00
2023-05-13T10:37:50.569Z,94304.00
2023-05-13T10:38:50.620Z,94304.00
2023-05-13T10:39:50.685Z,94300.00
2023-05-13T10:40:50.739Z,94300.00
2023-05-13T10:41:50.790Z,94298.00
2023-05-13T10:42:50.851Z,94300.00
2023-05-13T10:43:50.880Z,94296.00
2023-05-13T10:44:50.961Z,94292.00
2023-05-13T10:45:51.058Z,94294.00
2023-05-13T10:46:51.123Z,94290.00
2023-05-13T10:47:51.201Z,94288.00
2023-05-13T10:48:51.218Z,94288.00
2023-05-13T10:49:51.248Z,94290.00
2023-05-13T10:50:51.416Z,94286.00
2023-05-13T10:51:51.417Z,94286.00
2023-05-13T10:52:51.444Z,94286.00
2023-05-13T10:53:51.517Z,94284.00
2023-05-13T10:54:51.576Z,94284.00
2023-05-13T10:55:51.747Z,94282.00
2023-05-13T10:56:51.707Z,94286.00
2023-05-13T10:57:53.364Z,94284.00
2023-05-13T10:58:51.837Z,94282.00
2023-05-13T10:59:51.887Z,94282.00
2023-05-13T11:00:51.989Z,94280.00
2023-05-13T11:01:52.110Z,94282.00
2023-05-13T11:02:52.213Z,94282.00
2023-05-13T11:03:52.288Z,94280.00
2023-05-13T11:04:52.200Z,94280.00
2023-05-13T11:05:52.258Z,94280.00
2023-05-13T11:06:52.318Z,94282.00
2023-05-13T11:07:52.375Z,94278.00
2023-05-13T11:08:54.266Z,94278.00
2023-05-13T11:09:52.437Z,94278.00
2023-05-13T11:10:52.437Z,94276.00
2023-05-13T11:11:52.420Z,94276.00
2023-05-13T11:12:52.424Z,94274.00
2023-05-13T11:13:52.409Z,94274.00
2023-05-13T11:14:52.394Z,94272.00
2023-05-13T11:15:52.421Z,94270.00
2023-05-13T11:16:52.446Z,94270.00
2023-05-13T11:17:52.419Z,94268.00
2023-05-13T11:18:52.428Z,94268.00
2023-05-13T11:19:52.408Z,94266.00
2023-05-13T11:20:53.040Z,94268.00
2023-05-13T11:21:52.356Z,94266.00
2023-05-13T11:22:52.355Z,94266.00
2023-05-13T11:23:52.352Z,94266.00
2023-05-13T11:24:52.364Z,94266.00
2023-05-13T11:25:52.355Z,94264.00
2023-05-13T11:26:52.343Z,94264.00
2023-05-13T11:27:52.293Z,94262.00
2023-05-13T11:28:52.298Z,94262.00
2023-05-13T11:29:52.306Z,94262.00
2023-05-13T11:30:52.279Z,94262.00
2023-05-13T11:31:52.364Z,94262.00
2023-05-13T11:32:52.505Z,94261.00
2023-05-13T11:33:52.258Z,94262.00
2023-05-13T11:34:52.299Z,94262.00
2023-05-13T11:35:52.268Z,94259.00
2023-05-13T11:36:52.270Z,94259.00
2023-05-13T11:37:52.233Z,94253.00
2023-05-13T11:38:52.243Z,94257.00
2023-05-13T11:39:52.264Z,94251.00
2023-05-13T11:40:52.310Z,94251.00
2023-05-13T11:41:52.420Z,94249.00
2023-05-13T11:42:52.444Z,94245.00
2023-05-13T11:43:52.496Z,94245.00
2023-05-13T11:44:52.541Z,94245.00
2023-05-13T11:45:52.645Z,94243.00
2023-05-13T11:46:52.674Z,94241.00
2023-05-13T11:47:52.758Z,94241.00
2023-05-13T11:48:52.921Z,94245.00